Time;durP1;ratioP1;P1;durP2;ratioP2;P2;SDS_P1;SDS_P2;PMS_P1;PMS_P2;Temp;Humidity;BMP_temperature;BMP_pressure;BME280_temperature;BME280_humidity;BME280_pressure;Samples;Min_cycle;Max_cycle;Signal;HPM_P1;HPM_P2
2022/11/22 00:01:18;;;;;;;5.00;4.80;;;7.40;99.90;;;;;;5053801;28;20450;-80
2022/11/22 00:03:48;;;;;;;5.63;5.23;;;7.30;99.90;;;;;;5058193;28;20543;-82
2022/11/22 00:06:16;;;;;;;5.43;5.20;;;7.40;99.90;;;;;;5061073;28;21595;-79
2022/11/22 00:08:44;;;;;;;6.90;6.10;;;7.40;1.00;;;;;;5059366;28;20539;-80
2022/11/22 00:11:12;;;;;;;5.37;5.13;;;7.30;55.30;;;;;;5052024;28;20450;-78
2022/11/22 00:13:40;;;;;;;5.70;5.33;;;7.20;99.90;;;;;;5054835;28;20475;-80
2022/11/22 00:16:08;;;;;;;5.90;5.50;;;7.20;1.00;;;;;;5052457;28;20463;-80
2022/11/22 00:18:37;;;;;;;6.80;6.33;;;7.20;1.00;;;;;;5055103;28;20470;-80
2022/11/22 00:21:07;;;;;;;5.27;5.07;;;7.20;1.00;;;;;;5056944;28;20473;-79
2022/11/22 00:23:35;;;;;;;5.83;5.33;;;7.30;1.00;;;;;;5055879;28;20499;-80
2022/11/22 00:26:05;;;;;;;5.17;4.97;;;7.30;1.00;;;;;;5056724;28;20575;-80
2022/11/22 00:28:33;;;;;;;5.37;5.17;;;7.30;99.90;;;;;;5051940;28;20467;-79
2022/11/22 00:31:02;;;;;;;4.50;4.40;;;7.60;99.90;;;;;;5055469;28;20457;-80
2022/11/22 00:33:30;;;;;;;5.03;4.73;;;7.60;99.90;;;;;;5053590;28;20480;-80
2022/11/22 00:35:58;;;;;;;5.03;4.90;;;7.50;99.90;;;;;;5049621;28;20461;-80
2022/11/22 00:38:29;;;;;;;5.27;5.07;;;7.50;99.90;;;;;;5052562;28;20465;-80
2022/11/22 00:40:57;;;;;;;5.30;5.20;;;7.60;99.90;;;;;;5052832;28;20460;-81
2022/11/22 00:43:25;;;;;;;4.70;4.50;;;7.40;1.00;;;;;;5054534;28;20467;-81
2022/11/22 00:45:53;;;;;;;5.10;5.00;;;7.60;1.00;;;;;;5050907;28;20968;-80
2022/11/22 00:48:22;;;;;;;5.13;4.90;;;7.60;99.90;;;;;;5050418;28;20465;-82
2022/11/22 00:50:50;;;;;;;5.20;5.00;;;7.60;1.00;;;;;;5052380;28;20460;-80
2022/11/22 00:53:18;;;;;;;5.67;5.47;;;7.40;1.00;;;;;;5049921;28;21203;-80
2022/11/22 00:55:48;;;;;;;5.70;5.50;;;7.50;1.00;;;;;;5050777;28;20453;-80
2022/11/22 00:58:17;;;;;;;6.00;5.80;;;7.50;99.90;;;;;;5051209;28;20935;-80
2022/11/22 01:00:45;;;;;;;5.47;5.27;;;7.60;1.00;;;;;;5047621;28;20472;-80
2022/11/22 01:03:14;;;;;;;5.97;5.63;;;7.60;1.00;;;;;;5049598;28;20562;-80
2022/11/22 01:05:42;;;;;;;6.00;5.70;;;7.40;1.00;;;;;;5055249;28;20456;-80
2022/11/22 01:08:10;;;;;;;6.00;5.80;;;7.50;99.90;;;;;;5055094;28;20480;-80
2022/11/22 01:10:38;;;;;;;6.10;5.90;;;7.60;49.20;;;;;;5055659;28;20442;-81
2022/11/22 01:13:08;;;;;;;6.03;5.80;;;7.50;99.90;;;;;;5055124;28;20480;-80
2022/11/22 01:15:36;;;;;;;6.33;6.03;;;7.50;99.90;;;;;;5053367;28;20455;-82
2022/11/22 01:18:05;;;;;;;5.90;5.70;;;7.50;99.90;;;;;;5055442;28;20455;-80
2022/11/22 01:20:33;;;;;;;5.70;5.60;;;7.40;99.90;;;;;;5048455;28;20906;-80
2022/11/22 01:23:01;;;;;;;6.33;6.13;;;7.60;99.90;;;;;;5049886;28;20497;-80
2022/11/22 01:25:29;;;;;;;5.93;5.63;;;7.60;99.90;;;;;;5053453;28;20624;-79
2022/11/22 01:27:57;;;;;;;5.60;5.40;;;7.60;90.20;;;;;;5052061;28;20490;-80
2022/11/22 01:30:27;;;;;;;6.93;6.63;;;7.50;46.80;;;;;;5054085;28;20460;-80
2022/11/22 01:32:55;;;;;;;6.37;6.10;;;7.40;99.90;;;;;;5052396;28;20588;-80
2022/11/22 01:35:23;;;;;;;5.83;5.63;;;7.60;1.00;;;;;;5053933;28;20464;-81
2022/11/22 01:37:51;;;;;;;6.90;6.50;;;7.50;99.90;;;;;;5052689;28;20442;-81
2022/11/22 01:40:19;;;;;;;6.50;6.20;;;7.60;99.90;;;;;;5056380;28;20502;-80
2022/11/22 01:42:51;;;;;;;6.33;6.13;;;7.60;1.00;;;;;;5059147;28;20490;-80
2022/11/22 01:45:46;;;;;;;6.83;6.33;;;7.60;99.90;;;;;;5050687;28;20972;-79
2022/11/22 01:48:23;;;;;;;6.70;6.20;;;7.70;99.90;;;;;;5056534;28;20460;-81
2022/11/22 01:50:55;;;;;;;6.10;5.80;;;7.70;1.00;;;;;;5058212;28;20486;-80
2022/11/22 01:53:28;;;;;;;7.10;6.50;;;7.70;92.20;;;;;;5056301;28;20503;-80
2022/11/22 01:55:59;;;;;;;6.50;6.30;;;7.70;99.90;;;;;;5060315;28;20473;-80
2022/11/22 01:58:30;;;;;;;6.83;6.30;;;7.70;99.90;;;;;;5049296;28;20452;-80
2022/11/22 02:01:00;;;;;;;7.80;7.30;;;7.70;99.90;;;;;;5055214;28;20491;-80
2022/11/22 02:03:29;;;;;;;6.70;6.50;;;7.60;1.00;;;;;;5058082;28;20483;-80
2022/11/22 02:05:58;;;;;;;6.50;6.20;;;7.70;1.00;;;;;;5056175;28;20445;-80
2022/11/22 02:08:34;;;;;;;6.73;6.27;;;7.60;90.50;;;;;;5056361;28;20480;-80
2022/11/22 02:11:03;;;;;;;6.40;6.10;;;7.80;1.00;;;;;;5057219;28;20543;-80
2022/11/22 02:13:36;;;;;;;6.40;6.20;;;7.80;1.00;;;;;;5055075;28;20591;-80
2022/11/22 02:16:06;;;;;;;6.83;6.57;;;7.70;99.90;;;;;;5047002;28;20501;-80
2022/11/22 02:18:35;;;;;;;7.67;7.30;;;7.70;1.00;;;;;;5061378;28;20445;-80
2022/11/22 02:21:05;;;;;;;6.80;6.60;;;7.70;1.00;;;;;;5061819;28;20883;-79
2022/11/22 02:23:45;;;;;;;7.30;7.00;;;7.70;99.90;;;;;;5054578;28;20476;-79
2022/11/22 02:26:15;;;;;;;7.07;6.60;;;7.70;1.00;;;;;;5060938;28;20454;-80
2022/11/22 02:28:43;;;;;;;6.70;6.40;;;7.70;99.90;;;;;;5060016;28;20479;-81
2022/11/22 02:31:37;;;;;;;6.73;6.43;;;7.70;99.90;;;;;;5066704;28;21955;-81
2022/11/22 02:34:05;;;;;;;7.43;7.13;;;7.60;1.00;;;;;;5060209;28;20521;-80
2022/11/22 02:36:38;;;;;;;7.00;6.80;;;7.40;1.00;;;;;;5060307;28;21052;-81
2022/11/22 02:39:09;;;;;;;7.33;7.03;;;7.50;99.90;;;;;;5061667;28;20455;-82
2022/11/22 02:41:40;;;;;;;7.10;6.80;;;7.50;31.80;;;;;;5064532;28;21143;-81
2022/11/22 02:44:10;;;;;;;7.20;6.90;;;7.50;99.90;;;;;;5057407;28;20484;-80
2022/11/22 02:46:47;;;;;;;7.53;7.33;;;7.60;99.90;;;;;;5057594;28;20484;-81
2022/11/22 02:49:18;;;;;;;7.10;6.90;;;7.50;1.00;;;;;;5060733;28;20460;-81
2022/11/22 02:51:46;;;;;;;7.43;7.23;;;7.50;99.90;;;;;;5056280;28;20474;-81
2022/11/22 02:54:15;;;;;;;7.20;7.00;;;7.40;99.90;;;;;;5053286;28;20471;-82
2022/11/22 02:56:45;;;;;;;6.97;6.67;;;7.40;25.70;;;;;;5056549;28;20949;-81
2022/11/22 02:59:13;;;;;;;7.97;7.37;;;7.50;99.90;;;;;;5059761;28;20452;-81
2022/11/22 03:01:42;;;;;;;8.10;7.70;;;7.50;99.90;;;;;;5055885;28;20467;-79
2022/11/22 03:04:23;;;;;;;7.63;7.33;;;7.60;15.50;;;;;;5056681;28;20489;-81
2022/11/22 03:06:53;;;;;;;7.80;7.43;;;7.50;1.00;;;;;;5065798;28;20456;-82
2022/11/22 03:09:21;;;;;;;7.53;7.03;;;7.50;1.00;;;;;;5058238;28;20525;-80
2022/11/22 03:11:50;;;;;;;7.27;7.07;;;7.50;1.00;;;;;;5060908;28;20533;-81
2022/11/22 03:14:19;;;;;;;7.77;7.47;;;7.50;1.00;;;;;;5059518;28;20483;-80
2022/11/22 03:16:47;;;;;;;7.30;7.00;;;7.60;1.00;;;;;;5056035;28;20946;-80
2022/11/22 03:19:16;;;;;;;7.73;7.50;;;7.60;1.00;;;;;;5055532;28;20451;-80
2022/11/22 03:21:44;;;;;;;7.00;6.60;;;7.60;99.90;;;;;;5055993;28;20925;-79
2022/11/22 03:24:12;;;;;;;7.00;6.80;;;7.60;99.90;;;;;;5053188;28;20819;-79
2022/11/22 03:26:40;;;;;;;7.63;7.20;;;7.50;99.90;;;;;;5059404;28;20505;-80
2022/11/22 03:29:10;;;;;;;7.87;7.47;;;7.60;99.90;;;;;;5057360;28;20476;-80
2022/11/22 03:31:38;;;;;;;7.03;6.60;;;7.60;1.00;;;;;;5062871;28;20489;-81
2022/11/22 03:34:06;;;;;;;7.70;7.00;;;7.60;1.00;;;;;;5055849;28;20543;-80
2022/11/22 03:36:34;;;;;;;7.53;7.13;;;7.60;2.80;;;;;;5058135;28;21222;-80
2022/11/22 03:39:02;;;;;;;6.60;6.30;;;7.60;99.90;;;;;;5054339;28;20458;-80
2022/11/22 03:41:30;;;;;;;7.17;6.67;;;7.60;99.90;;;;;;5055806;28;21003;-79
2022/11/22 03:43:58;;;;;;;7.23;6.77;;;7.60;99.90;;;;;;5054886;28;20515;-81
2022/11/22 03:46:28;;;;;;;7.33;7.03;;;7.60;99.90;;;;;;5052858;28;20449;-79
2022/11/22 03:48:56;;;;;;;6.40;6.20;;;7.40;1.00;;;;;;5052110;28;20530;-80
2022/11/22 03:51:24;;;;;;;6.97;6.47;;;7.50;1.00;;;;;;5059599;28;20457;-79
2022/11/22 03:53:52;;;;;;;6.37;6.17;;;7.40;99.90;;;;;;5050896;28;20989;-80
2022/11/22 03:56:21;;;;;;;6.50;6.30;;;7.40;25.10;;;;;;5057681;28;20983;-79
2022/11/22 03:58:50;;;;;;;7.13;6.63;;;7.30;1.00;;;;;;5054053;28;20933;-79
2022/11/22 04:01:18;;;;;;;7.07;6.70;;;7.30;1.00;;;;;;5056197;28;20484;-79
2022/11/22 04:03:48;;;;;;;7.20;6.80;;;7.30;99.90;;;;;;5053550;28;20801;-79
2022/11/22 04:06:16;;;;;;;7.30;6.90;;;7.30;99.90;;;;;;5051171;28;20978;-79
2022/11/22 04:08:44;;;;;;;7.03;6.83;;;7.30;99.90;;;;;;5048661;28;21956;-79
2022/11/22 04:11:12;;;;;;;6.90;6.60;;;7.30;99.90;;;;;;5053935;28;20444;-79
2022/11/22 04:16:26;;;;;;;7.13;6.63;;;7.30;99.90;;;;;;5051983;28;20472;-79
2022/11/22 04:18:56;;;;;;;6.70;6.50;;;7.30;99.90;;;;;;5049586;28;20441;-79
2022/11/22 04:21:35;;;;;;;7.57;7.17;;;7.20;16.30;;;;;;5053232;28;20453;-80
2022/11/22 04:26:52;;;;;;;8.67;6.90;;;7.30;99.90;;;;;;5050924;28;20456;-79
2022/11/22 04:29:20;;;;;;;6.70;6.50;;;7.10;99.90;;;;;;5054382;28;20475;-80
2022/11/22 04:34:37;;;;;;;6.90;6.60;;;6.90;99.90;;;;;;5054322;28;20476;-79
2022/11/22 04:37:05;;;;;;;7.33;6.93;;;6.90;29.40;;;;;;5055662;28;20460;-80
2022/11/22 04:39:34;;;;;;;7.20;6.80;;;7.00;99.90;;;;;;5053431;28;20448;-79
2022/11/22 04:44:48;;;;;;;6.80;6.43;;;7.20;99.90;;;;;;5052395;28;20760;-79
2022/11/22 04:50:01;;;;;;;8.13;6.40;;;7.00;1.00;;;;;;5055945;28;20486;-80
2022/11/22 04:55:15;;;;;;;6.30;6.00;;;6.90;99.90;;;;;;5049404;28;20477;-81
2022/11/22 04:57:43;;;;;;;6.73;6.33;;;7.10;1.00;;;;;;5056285;28;20541;-80
2022/11/22 05:00:12;;;;;;;7.43;6.63;;;7.20;90.10;;;;;;5054948;28;20992;-80
2022/11/22 05:02:40;;;;;;;7.17;6.73;;;7.30;1.00;;;;;;5052605;28;20468;-80
2022/11/22 05:05:10;;;;;;;7.00;6.50;;;7.30;1.00;;;;;;5055863;28;20446;-81
2022/11/22 05:07:38;;;;;;;6.63;6.13;;;7.10;1.00;;;;;;5058303;28;20461;-80
2022/11/22 05:10:07;;;;;;;6.70;6.27;;;7.00;99.90;;;;;;5058315;28;20529;-82
2022/11/22 05:12:36;;;;;;;6.47;6.17;;;6.90;1.00;;;;;;5056117;28;20473;-82
2022/11/22 05:15:05;;;;;;;7.77;7.00;;;6.90;1.00;;;;;;5052976;28;20460;-82
2022/11/22 05:17:33;;;;;;;7.20;6.70;;;6.80;8.20;;;;;;5062786;28;20546;-81
2022/11/22 05:20:02;;;;;;;8.77;6.47;;;6.90;99.90;;;;;;5052837;28;20455;-81
2022/11/22 05:25:18;;;;;;;7.47;7.20;;;7.10;99.90;;;;;;5056782;28;20448;-81
2022/11/22 05:27:54;;;;;;;7.30;6.93;;;7.00;99.90;;;;;;5057571;28;21060;-81
2022/11/22 05:30:22;;;;;;;6.43;6.17;;;6.80;99.90;;;;;;5056001;28;20466;-80
2022/11/22 05:32:50;;;;;;;7.50;6.90;;;7.00;1.00;;;;;;5054401;28;20467;-81
2022/11/22 05:35:18;;;;;;;6.75;6.25;;;7.10;99.90;;;;;;5054078;28;20976;-82
2022/11/22 05:37:48;;;;;;;6.63;6.17;;;7.00;1.00;;;;;;5051580;28;20210;-81
2022/11/22 05:40:16;;;;;;;6.73;6.43;;;6.90;1.00;;;;;;5059338;28;20539;-84
2022/11/22 05:42:44;;;;;;;7.60;7.17;;;6.90;99.90;;;;;;5057084;28;20467;-83
2022/11/22 05:45:12;;;;;;;7.40;7.00;;;7.00;99.90;;;;;;5057636;28;20462;-84
2022/11/22 05:47:40;;;;;;;7.20;6.90;;;7.00;99.90;;;;;;5058975;28;20456;-83
2022/11/22 05:50:09;;;;;;;6.70;6.40;;;7.00;99.90;;;;;;5058072;28;20470;-84
2022/11/22 05:52:38;;;;;;;6.47;6.17;;;7.10;72.90;;;;;;5056278;28;20501;-83
2022/11/22 05:55:08;;;;;;;6.70;6.30;;;7.20;99.90;;;;;;5068385;28;20449;-83
2022/11/22 05:57:36;;;;;;;6.23;5.93;;;7.30;63.40;;;;;;5059163;28;20463;-83
2022/11/22 06:00:07;;;;;;;6.30;6.00;;;7.30;1.00;;;;;;5052595;28;20486;-82
2022/11/22 06:02:35;;;;;;;7.23;6.63;;;7.20;1.00;;;;;;5054523;28;20474;-83
2022/11/22 06:05:03;;;;;;;6.50;6.10;;;7.20;45.30;;;;;;5061489;28;20464;-83
2022/11/22 06:07:31;;;;;;;7.10;6.63;;;7.00;1.00;;;;;;5059181;28;20498;-83
2022/11/22 06:10:00;;;;;;;6.43;6.10;;;7.00;99.90;;;;;;5059079;28;20479;-84
2022/11/22 06:12:29;;;;;;;7.03;6.57;;;6.90;1.00;;;;;;5061852;28;20450;-84
2022/11/22 06:14:57;;;;;;;8.00;6.50;;;7.10;1.00;;;;;;5055182;28;20447;-82
2022/11/22 06:17:25;;;;;;;5.73;5.30;;;7.10;99.90;;;;;;5062034;28;20464;-83
2022/11/22 06:19:53;;;;;;;6.47;5.90;;;7.10;1.00;;;;;;5060509;28;20977;-84
2022/11/22 06:22:22;;;;;;;6.60;6.27;;;7.10;99.90;;;;;;5055189;28;20451;-83
2022/11/22 06:24:50;;;;;;;6.40;5.87;;;7.20;99.90;;;;;;5058518;28;20450;-84
2022/11/22 06:27:18;;;;;;;4.97;4.70;;;7.20;99.90;;;;;;5054648;28;20455;-84
2022/11/22 06:29:47;;;;;;;6.20;5.70;;;7.10;99.90;;;;;;5055620;28;20480;-84
2022/11/22 06:32:16;;;;;;;5.20;4.90;;;7.20;99.90;;;;;;5061294;28;20459;-84
2022/11/22 06:34:44;;;;;;;6.13;5.23;;;7.10;99.90;;;;;;5051310;28;20529;-85
2022/11/22 06:37:15;;;;;;;6.93;6.17;;;7.10;99.90;;;;;;5048042;28;21035;-85
2022/11/22 06:39:43;;;;;;;5.87;5.37;;;7.10;99.90;;;;;;5054514;28;20446;-85
2022/11/22 06:42:11;;;;;;;5.30;4.80;;;7.20;99.90;;;;;;5055730;28;20466;-86
2022/11/22 06:44:40;;;;;;;5.73;5.40;;;7.10;99.90;;;;;;5054562;28;20989;-82
2022/11/22 06:47:09;;;;;;;10.03;5.77;;;7.00;99.90;;;;;;5054940;28;20527;-86
2022/11/22 06:49:40;;;;;;;5.97;5.50;;;7.00;99.90;;;;;;5059089;28;20487;-85
2022/11/22 06:52:08;;;;;;;7.43;5.90;;;7.10;99.90;;;;;;5070957;28;20455;-84
2022/11/22 06:54:36;;;;;;;6.50;5.90;;;7.00;99.90;;;;;;5053660;28;20487;-84
2022/11/22 06:57:06;;;;;;;10.53;9.13;;;7.20;99.90;;;;;;5055711;28;20564;-82
2022/11/22 06:59:35;;;;;;;9.43;5.90;;;7.10;43.50;;;;;;5055831;28;20517;-85
2022/11/22 07:02:03;;;;;;;7.63;6.90;;;7.10;56.10;;;;;;5054009;28;20447;-85
2022/11/22 07:04:35;;;;;;;7.10;6.47;;;7.20;75.20;;;;;;5057164;28;20466;-85
2022/11/22 07:07:23;;;;;;;7.77;6.87;;;7.10;43.90;;;;;;5056703;28;20509;-84
2022/11/22 07:09:51;;;;;;;7.50;6.80;;;7.10;80.40;;;;;;5055720;28;20522;-85
2022/11/22 07:12:23;;;;;;;7.37;6.37;;;7.00;99.90;;;;;;5061625;28;20463;-85
2022/11/22 07:14:51;;;;;;;6.80;6.30;;;7.10;99.90;;;;;;5061641;28;20439;-85
2022/11/22 07:17:20;;;;;;;6.33;5.83;;;7.20;99.90;;;;;;5062687;28;20455;-84
2022/11/22 07:19:50;;;;;;;6.53;6.23;;;7.10;99.90;;;;;;5059686;28;21410;-85
2022/11/22 07:22:18;;;;;;;7.77;6.27;;;7.10;99.90;;;;;;5062351;28;21138;-85
2022/11/22 07:24:46;;;;;;;7.13;6.63;;;7.20;1.00;;;;;;5062312;28;20459;-84
2022/11/22 07:27:14;;;;;;;7.60;7.00;;;7.10;99.90;;;;;;5067015;28;20454;-84
2022/11/22 07:29:42;;;;;;;6.90;6.33;;;7.10;1.00;;;;;;5058779;28;20485;-85
2022/11/22 07:32:11;;;;;;;10.67;6.90;;;7.10;1.00;;;;;;5064299;28;20451;-85
2022/11/22 07:34:39;;;;;;;6.77;6.17;;;7.10;99.90;;;;;;5057475;28;20459;-85
2022/11/22 07:37:09;;;;;;;6.00;5.70;;;7.10;99.90;;;;;;5062381;28;20446;-85
2022/11/22 07:39:37;;;;;;;6.97;6.10;;;7.10;99.90;;;;;;5067363;28;20478;-85
2022/11/22 07:42:05;;;;;;;6.00;5.70;;;7.00;99.90;;;;;;5064182;28;20527;-86
2022/11/22 07:44:33;;;;;;;6.97;6.20;;;7.10;99.90;;;;;;5063041;28;20498;-85
2022/11/22 07:47:01;;;;;;;6.90;6.50;;;7.20;99.90;;;;;;5059812;28;20483;-85
2022/11/22 07:49:29;;;;;;;8.80;6.70;;;7.20;99.90;;;;;;5056194;28;20517;-85
2022/11/22 07:51:58;;;;;;;6.97;6.37;;;7.20;99.90;;;;;;5061057;28;20564;-84
2022/11/22 07:54:28;;;;;;;7.07;6.77;;;7.20;99.90;;;;;;5064076;28;20831;-84
2022/11/22 07:56:56;;;;;;;7.67;7.27;;;7.20;99.90;;;;;;5055008;28;20456;-84
2022/11/22 07:59:25;;;;;;;6.73;6.23;;;7.10;99.90;;;;;;5057408;28;20508;-85
2022/11/22 08:01:53;;;;;;;6.73;6.17;;;7.20;1.00;;;;;;5059839;28;20479;-84
2022/11/22 08:04:22;;;;;;;5.90;5.60;;;7.20;99.90;;;;;;5063094;28;21036;-83
2022/11/22 08:06:50;;;;;;;6.57;6.13;;;7.10;1.00;;;;;;5064685;28;20442;-84
2022/11/22 08:09:18;;;;;;;5.87;5.57;;;7.20;1.00;;;;;;5064730;28;20966;-84
2022/11/22 08:11:48;;;;;;;6.37;5.97;;;7.20;99.90;;;;;;5063569;28;20488;-84
2022/11/22 08:14:16;;;;;;;6.50;6.00;;;7.30;99.90;;;;;;5066903;28;20501;-85
2022/11/22 08:16:44;;;;;;;6.63;6.20;;;7.30;99.90;;;;;;5060111;28;20499;-84
2022/11/22 08:19:16;;;;;;;6.10;5.90;;;7.30;99.90;;;;;;5064213;28;20478;-84
2022/11/22 08:21:44;;;;;;;20.87;8.20;;;7.40;95.10;;;;;;5059539;28;20448;-84
2022/11/22 08:24:12;;;;;;;7.23;6.53;;;7.40;99.90;;;;;;5052328;28;21016;-85
2022/11/22 08:26:41;;;;;;;7.33;6.83;;;7.40;99.90;;;;;;5060178;28;20443;-83
2022/11/22 08:29:12;;;;;;;6.80;6.43;;;7.40;99.90;;;;;;5058156;28;20461;-83
2022/11/22 08:31:41;;;;;;;7.50;6.90;;;7.40;99.90;;;;;;5063662;28;20494;-84
2022/11/22 08:34:09;;;;;;;7.20;6.70;;;7.40;1.00;;;;;;5060648;28;20511;-84
2022/11/22 08:36:38;;;;;;;7.30;6.80;;;7.50;99.90;;;;;;5060828;28;20461;-84
2022/11/22 08:39:06;;;;;;;6.43;6.13;;;7.40;99.90;;;;;;5052978;28;20461;-83
2022/11/22 08:41:34;;;;;;;7.57;7.03;;;7.50;99.90;;;;;;5061547;28;20465;-84
2022/11/22 08:44:03;;;;;;;7.80;7.37;;;7.60;99.90;;;;;;5057597;28;20525;-84
2022/11/22 08:46:32;;;;;;;9.57;7.23;;;7.40;99.90;;;;;;5065379;28;20460;-84
2022/11/22 08:49:02;;;;;;;7.20;6.90;;;7.50;99.90;;;;;;5057550;28;20459;-85
2022/11/22 08:51:31;;;;;;;7.57;7.07;;;7.50;1.00;;;;;;5059816;28;20477;-85
2022/11/22 08:53:59;;;;;;;7.93;7.37;;;7.40;99.90;;;;;;5060767;28;20485;-84
2022/11/22 08:56:29;;;;;;;8.40;7.93;;;7.50;1.00;;;;;;5064268;28;20461;-84
2022/11/22 08:58:58;;;;;;;8.00;7.57;;;7.50;1.00;;;;;;5059989;28;20831;-83
2022/11/22 09:01:26;;;;;;;7.50;6.90;;;7.50;1.00;;;;;;5058468;28;20819;-84
2022/11/22 09:03:56;;;;;;;8.33;7.83;;;7.50;99.90;;;;;;5059943;28;20504;-84
2022/11/22 09:06:24;;;;;;;7.90;7.40;;;7.60;99.90;;;;;;5060471;28;20576;-84
2022/11/22 09:09:12;;;;;;;6.87;6.57;;;7.70;9.30;;;;;;5064104;28;20452;-82
2022/11/22 09:12:00;;;;;;;7.77;7.23;;;7.70;99.90;;;;;;5061735;28;20744;-83
2022/11/22 09:14:28;;;;;;;7.20;6.80;;;7.70;37.70;;;;;;5056507;28;20579;-82
2022/11/22 09:16:57;;;;;;;7.47;7.07;;;7.70;90.10;;;;;;5063454;28;20460;-81
2022/11/22 09:19:26;;;;;;;7.63;7.23;;;7.80;1.00;;;;;;5062104;28;20469;-82
2022/11/22 09:21:55;;;;;;;7.40;7.00;;;7.90;1.00;;;;;;5055579;28;20446;-82
2022/11/22 09:24:23;;;;;;;7.30;7.00;;;8.00;1.00;;;;;;5062478;28;20489;-84
2022/11/22 09:26:51;;;;;;;7.87;7.17;;;8.00;99.90;;;;;;5054703;28;20456;-84
2022/11/22 09:29:20;;;;;;;7.30;7.00;;;7.80;99.90;;;;;;5063165;28;20677;-84
2022/11/22 09:31:48;;;;;;;7.80;7.30;;;7.90;99.90;;;;;;5061235;28;20480;-84
2022/11/22 09:34:16;;;;;;;8.47;7.13;;;7.80;99.90;;;;;;5056430;28;20565;-84
2022/11/22 09:36:46;;;;;;;6.60;6.27;;;7.90;99.90;;;;;;5057397;28;20504;-86
2022/11/22 09:39:14;;;;;;;7.20;7.00;;;7.80;99.90;;;;;;5052802;28;20497;-85
2022/11/22 09:42:13;;;;;;;7.30;6.60;;;7.90;99.90;;;;;;5056151;28;20456;-84
2022/11/22 09:44:58;;;;;;;7.10;6.80;;;7.90;1.00;;;;;;5054113;28;20514;-84
2022/11/22 09:47:37;;;;;;;6.73;6.43;;;7.90;1.00;;;;;;5053101;28;20628;-85
2022/11/22 09:50:18;;;;;;;6.73;6.33;;;7.80;1.00;;;;;;5056813;28;20468;-84
2022/11/22 09:52:54;;;;;;;6.80;6.30;;;7.80;1.00;;;;;;5055405;28;20480;-84
2022/11/22 09:55:27;;;;;;;7.20;6.63;;;7.80;1.00;;;;;;5056235;28;20457;-84
2022/11/22 09:58:06;;;;;;;8.17;7.37;;;7.90;1.00;;;;;;5062752;28;20598;-84
2022/11/22 10:00:35;;;;;;;6.90;6.40;;;7.90;1.00;;;;;;5059276;28;20472;-84
2022/11/22 10:03:11;;;;;;;7.90;7.10;;;7.90;1.00;;;;;;5060093;28;20872;-85
2022/11/22 10:05:48;;;;;;;8.00;7.50;;;7.70;1.00;;;;;;5056226;28;21045;-84
2022/11/22 10:08:30;;;;;;;8.10;7.50;;;7.80;1.00;;;;;;5055441;28;21032;-84
2022/11/22 10:10:59;;;;;;;7.77;7.27;;;7.90;1.00;;;;;;5054425;28;20477;-85
2022/11/22 10:13:33;;;;;;;7.63;7.20;;;7.90;1.00;;;;;;5057350;28;21184;-84
2022/11/22 10:16:10;;;;;;;6.33;6.10;;;8.00;1.00;;;;;;5057915;28;20926;-84
2022/11/22 10:18:44;;;;;;;6.30;5.80;;;7.90;1.00;;;;;;5055588;28;20486;-84
2022/11/22 10:21:13;;;;;;;5.97;5.77;;;7.80;99.90;;;;;;5056853;28;20448;-84
2022/11/22 10:23:44;;;;;;;7.50;7.03;;;7.80;1.00;;;;;;5061346;28;20907;-84
2022/11/22 10:26:22;;;;;;;6.37;6.07;;;7.80;1.00;;;;;;5057777;28;20539;-83
2022/11/22 10:29:14;;;;;;;6.70;6.00;;;7.90;1.00;;;;;;5061460;28;20450;-85
2022/11/22 10:31:49;;;;;;;5.80;5.30;;;7.80;99.90;;;;;;5049388;28;20493;-84
2022/11/22 10:34:27;;;;;;;5.80;5.40;;;7.80;99.90;;;;;;5058993;28;20479;-84
2022/11/22 10:37:05;;;;;;;6.27;5.70;;;7.80;99.90;;;;;;5057931;28;20810;-84
2022/11/22 10:39:55;;;;;;;5.97;5.47;;;8.00;99.90;;;;;;5062025;28;20967;-84
2022/11/22 10:42:51;;;;;;;5.20;4.90;;;8.00;99.90;;;;;;5060293;28;20464;-83
2022/11/22 10:45:29;;;;;;;5.03;4.70;;;8.00;27.70;;;;;;5057552;28;20460;-84
2022/11/22 10:48:12;;;;;;;4.40;4.20;;;8.10;1.00;;;;;;5058152;28;20459;-84
2022/11/22 10:50:52;;;;;;;5.60;5.20;;;8.00;1.00;;;;;;5063665;28;20443;-85
2022/11/22 10:53:28;;;;;;;6.13;5.60;;;8.10;1.00;;;;;;5060951;28;20468;-85
2022/11/22 10:56:06;;;;;;;5.73;5.40;;;8.20;1.00;;;;;;5062679;28;20486;-84
2022/11/22 10:58:43;;;;;;;5.00;4.70;;;8.20;1.00;;;;;;5067411;28;20474;-85
2022/11/22 11:01:18;;;;;;;4.90;4.50;;;8.20;1.00;;;;;;5057955;28;20461;-83
2022/11/22 11:03:48;;;;;;;5.00;4.80;;;8.30;1.00;;;;;;5061116;28;20484;-85
2022/11/22 11:06:22;;;;;;;5.03;4.63;;;8.30;1.00;;;;;;5057209;28;20458;-85
2022/11/22 11:09:17;;;;;;;5.10;4.77;;;8.10;1.00;;;;;;5060418;28;20447;-84
2022/11/22 11:12:14;;;;;;;4.53;4.13;;;8.00;1.00;;;;;;5057720;28;20474;-85
2022/11/22 11:14:48;;;;;;;4.80;4.57;;;8.00;1.00;;;;;;5059858;28;20509;-84
2022/11/22 11:17:19;;;;;;;5.23;4.83;;;8.00;1.00;;;;;;5060169;28;20454;-84
2022/11/22 11:19:49;;;;;;;4.93;4.50;;;8.00;1.00;;;;;;5057610;28;20503;-83
2022/11/22 11:22:21;;;;;;;5.40;4.70;;;8.00;1.00;;;;;;5054900;28;20460;-85
2022/11/22 11:25:32;;;;;;;4.10;3.83;;;8.00;1.00;;;;;;5060322;28;20453;-85
2022/11/22 11:28:06;;;;;;;6.63;4.30;;;8.00;1.00;;;;;;5054510;28;20492;-85
2022/11/22 11:30:40;;;;;;;3.83;3.60;;;7.90;1.00;;;;;;5059994;28;20968;-85
2022/11/22 11:33:29;;;;;;;4.47;4.07;;;8.00;1.00;;;;;;5056668;28;21011;-84
2022/11/22 11:36:03;;;;;;;4.00;3.70;;;8.00;1.00;;;;;;5054492;28;20477;-85
2022/11/22 11:38:34;;;;;;;5.67;4.17;;;8.00;1.00;;;;;;5057688;28;20967;-86
2022/11/22 11:41:21;;;;;;;5.90;4.97;;;8.10;1.00;;;;;;5044455;28;20474;-84
2022/11/22 11:43:52;;;;;;;4.43;4.13;;;8.20;1.00;;;;;;5048253;28;20476;-85
2022/11/22 11:46:21;;;;;;;5.40;4.03;;;8.20;1.00;;;;;;5059803;28;20462;-85
2022/11/22 11:48:50;;;;;;;4.27;3.80;;;8.20;1.00;;;;;;5065587;28;20984;-86
2022/11/22 11:51:24;;;;;;;4.27;3.93;;;8.20;1.00;;;;;;5063065;28;20453;-85
2022/11/22 11:54:00;;;;;;;4.10;3.70;;;8.30;1.00;;;;;;5061174;28;20479;-84
2022/11/22 11:56:34;;;;;;;4.20;3.80;;;8.20;1.00;;;;;;5066168;28;20448;-85
2022/11/22 11:59:13;;;;;;;3.87;3.67;;;8.30;1.00;;;;;;5061804;28;20469;-85
2022/11/22 12:01:50;;;;;;;4.17;3.90;;;8.10;1.00;;;;;;5062842;28;20460;-86
2022/11/22 12:04:24;;;;;;;4.70;3.83;;;8.20;1.00;;;;;;5061318;28;20566;-86
2022/11/22 12:06:58;;;;;;;3.20;3.00;;;8.20;99.90;;;;;;5061815;28;20503;-85
2022/11/22 12:09:43;;;;;;;5.03;4.10;;;8.20;99.90;;;;;;5066260;28;20880;-85
2022/11/22 12:12:36;;;;;;;3.53;3.27;;;8.20;99.90;;;;;;5062501;28;20463;-84
2022/11/22 12:15:15;;;;;;;3.57;3.33;;;8.20;99.90;;;;;;5064093;28;20502;-84
2022/11/22 12:18:00;;;;;;;4.80;3.87;;;8.10;99.90;;;;;;5060513;28;20466;-84
2022/11/22 12:20:39;;;;;;;4.23;4.03;;;8.20;99.90;;;;;;5063561;28;21039;-85
2022/11/22 12:23:20;;;;;;;3.90;3.70;;;8.30;99.90;;;;;;5061297;28;20465;-85
2022/11/22 12:25:50;;;;;;;3.80;3.60;;;8.20;99.90;;;;;;5063721;28;20453;-84
2022/11/22 12:28:20;;;;;;;5.83;3.40;;;8.20;99.90;;;;;;5065083;28;20463;-84
2022/11/22 12:30:55;;;;;;;5.73;4.30;;;8.20;99.90;;;;;;5057554;28;20476;-85
2022/11/22 12:33:28;;;;;;;4.20;3.80;;;8.30;99.90;;;;;;5070393;28;20494;-85
2022/11/22 12:35:57;;;;;;;5.10;4.63;;;8.30;99.90;;;;;;5062563;28;20483;-86
2022/11/22 12:38:29;;;;;;;4.43;4.10;;;8.40;99.90;;;;;;5078396;28;20463;-85
2022/11/22 12:41:01;;;;;;;3.80;3.50;;;8.50;99.90;;;;;;5061474;28;20538;-84
2022/11/22 12:43:36;;;;;;;4.87;3.73;;;8.40;99.90;;;;;;5059929;28;20473;-86
2022/11/22 12:46:11;;;;;;;3.87;3.77;;;8.50;99.90;;;;;;5059783;28;20455;-86
2022/11/22 12:48:45;;;;;;;4.27;3.97;;;8.60;99.90;;;;;;5062409;28;20457;-86
2022/11/22 12:51:22;;;;;;;3.60;3.50;;;8.70;99.90;;;;;;5058478;28;20557;-85
2022/11/22 12:53:52;;;;;;;4.40;4.20;;;8.40;99.90;;;;;;5061893;28;20485;-86
2022/11/22 12:56:29;;;;;;;9.30;4.13;;;8.60;99.90;;;;;;5061287;28;20445;-86
2022/11/22 12:59:07;;;;;;;4.47;4.03;;;8.70;99.90;;;;;;5059486;28;20456;-85
2022/11/22 13:01:43;;;;;;;4.17;4.07;;;8.60;99.90;;;;;;5060901;28;20844;-85
2022/11/22 13:04:19;;;;;;;4.13;3.77;;;8.70;99.90;;;;;;5058734;28;20880;-84
2022/11/22 13:06:53;;;;;;;3.70;3.60;;;8.50;99.90;;;;;;5065191;28;20546;-85
2022/11/22 13:09:29;;;;;;;3.63;3.53;;;8.40;99.90;;;;;;5063644;28;20463;-85
2022/11/22 13:12:03;;;;;;;4.30;3.67;;;8.40;99.90;;;;;;5062467;28;21351;-86
2022/11/22 13:14:36;;;;;;;4.23;3.63;;;8.50;99.90;;;;;;5060740;28;20481;-85
2022/11/22 13:17:09;;;;;;;3.53;3.27;;;8.50;99.90;;;;;;5064597;28;20476;-85
2022/11/22 13:19:43;;;;;;;3.47;3.27;;;8.50;99.90;;;;;;5065767;28;20565;-82
2022/11/22 13:22:21;;;;;;;3.07;2.90;;;8.50;99.90;;;;;;5065979;28;20454;-81
2022/11/22 13:25:24;;;;;;;3.20;3.10;;;8.50;99.90;;;;;;5061386;28;20524;-82
2022/11/22 13:27:57;;;;;;;3.97;3.67;;;8.40;99.90;;;;;;5064835;28;20940;-82
2022/11/22 13:30:27;;;;;;;3.00;2.90;;;8.40;99.90;;;;;;5066143;28;20464;-81
2022/11/22 13:32:59;;;;;;;2.97;2.80;;;8.40;99.90;;;;;;5060904;28;20501;-83
2022/11/22 13:35:30;;;;;;;3.80;3.50;;;8.60;99.90;;;;;;5060274;28;20462;-83
2022/11/22 13:38:02;;;;;;;3.10;3.00;;;8.70;99.90;;;;;;5064108;28;20453;-82
2022/11/22 13:40:35;;;;;;;2.90;2.80;;;8.70;99.90;;;;;;5063237;28;20461;-81
2022/11/22 13:43:49;;;;;;;3.40;3.20;;;8.70;99.90;;;;;;5062589;28;20477;-81